Time;durP1;ratioP1;P1;durP2;ratioP2;P2;SDS_P1;SDS_P2;PMS_P1;PMS_P2;Temp;Humidity;BMP_temperature;BMP_pressure;BME280_temperature;BME280_humidity;BME280_pressure;Samples;Min_cycle;Max_cycle;Signal;HPM_P1;HPM_P2
2023/11/21 00:01:17;;;;;;;43.65;17.27;;;7.80;99.90;;;;;;5033786;28;20488;-73
2023/11/21 00:03:42;;;;;;;40.72;16.75;;;7.80;99.90;;;;;;5035520;28;20048;-72
2023/11/21 00:06:08;;;;;;;30.70;15.98;;;7.70;99.90;;;;;;5037784;28;20309;-72
2023/11/21 00:08:37;;;;;;;35.78;16.95;;;7.70;99.90;;;;;;5030496;28;20028;-73
2023/11/21 00:11:05;;;;;;;35.88;16.58;;;7.60;99.90;;;;;;5030548;28;20056;-73
2023/11/21 00:13:31;;;;;;;32.42;15.50;;;7.60;99.90;;;;;;5040414;28;20075;-72
2023/11/21 00:15:56;;;;;;;33.55;15.57;;;7.50;99.90;;;;;;5037069;28;20127;-72
2023/11/21 00:18:22;;;;;;;39.13;16.20;;;7.40;99.90;;;;;;5029873;28;20041;-72
2023/11/21 00:20:48;;;;;;;38.17;16.92;;;7.40;99.90;;;;;;5035594;28;20033;-72
2023/11/21 00:23:13;;;;;;;38.15;18.30;;;7.30;99.90;;;;;;5034511;28;20091;-72
2023/11/21 00:25:39;;;;;;;42.00;18.23;;;7.30;99.90;;;;;;5032563;28;20033;-72
2023/11/21 00:28:05;;;;;;;43.55;18.30;;;7.20;99.90;;;;;;5029464;28;20026;-73
2023/11/21 00:30:31;;;;;;;48.83;20.17;;;7.20;99.90;;;;;;5036001;28;20030;-72
2023/11/21 00:32:57;;;;;;;49.58;19.92;;;7.20;99.90;;;;;;5030587;28;20030;-73
2023/11/21 00:35:22;;;;;;;43.95;20.23;;;7.10;99.90;;;;;;5038175;28;20032;-73
2023/11/21 00:37:49;;;;;;;54.17;21.15;;;7.10;99.90;;;;;;5034829;28;20108;-72
2023/11/21 00:40:15;;;;;;;49.20;21.52;;;7.10;99.90;;;;;;5036354;28;20484;-72
2023/11/21 00:42:41;;;;;;;45.20;20.75;;;7.10;99.90;;;;;;5043848;28;20038;-72
2023/11/21 00:45:08;;;;;;;52.47;21.33;;;7.10;99.90;;;;;;5033008;28;20045;-72
2023/11/21 00:47:33;;;;;;;54.30;21.70;;;7.10;99.90;;;;;;5043062;28;20076;-72
2023/11/21 00:49:59;;;;;;;56.45;22.80;;;7.20;99.90;;;;;;5033222;28;20056;-73
2023/11/21 00:52:24;;;;;;;57.30;23.67;;;7.20;99.90;;;;;;5046267;28;20021;-73
2023/11/21 00:54:50;;;;;;;59.33;23.13;;;7.20;99.90;;;;;;5034396;28;20021;-72
2023/11/21 00:57:16;;;;;;;62.03;24.35;;;7.30;99.90;;;;;;5042804;28;20392;-72
2023/11/21 00:59:41;;;;;;;56.70;24.77;;;7.30;99.90;;;;;;5047592;28;20030;-72
2023/11/21 01:02:10;;;;;;;59.17;23.45;;;7.40;99.90;;;;;;5034332;28;20484;-72
2023/11/21 01:04:35;;;;;;;60.88;24.52;;;7.40;99.90;;;;;;5037601;28;20015;-73
2023/11/21 01:07:01;;;;;;;59.95;23.55;;;7.50;99.90;;;;;;5041731;28;20476;-72
2023/11/21 01:09:27;;;;;;;62.15;25.65;;;7.40;99.90;;;;;;5033972;28;20033;-72
2023/11/21 01:11:53;;;;;;;68.53;26.10;;;7.50;99.90;;;;;;5034259;28;20029;-73
2023/11/21 01:14:19;;;;;;;57.60;24.35;;;7.50;99.90;;;;;;5043424;28;20078;-72
2023/11/21 01:16:44;;;;;;;61.65;25.98;;;7.50;99.90;;;;;;5035559;28;20376;-72
2023/11/21 01:19:10;;;;;;;63.97;25.67;;;7.50;99.90;;;;;;5039400;28;20035;-72
2023/11/21 01:21:35;;;;;;;74.53;27.90;;;7.50;99.90;;;;;;5048795;28;20466;-73
2023/11/21 01:24:02;;;;;;;70.85;27.40;;;7.50;99.90;;;;;;5034062;28;20021;-72
2023/11/21 01:26:28;;;;;;;61.75;25.30;;;7.60;99.90;;;;;;5041658;28;20135;-72
2023/11/21 01:28:54;;;;;;;62.45;25.50;;;7.60;99.90;;;;;;5045656;28;20051;-73
2023/11/21 01:31:20;;;;;;;65.65;26.48;;;7.60;99.90;;;;;;5047077;28;20036;-72
2023/11/21 01:33:46;;;;;;;78.13;26.77;;;7.70;99.90;;;;;;5039358;28;20014;-72
2023/11/21 01:36:11;;;;;;;62.90;26.00;;;7.70;99.90;;;;;;5049972;28;20017;-72
2023/11/21 01:38:37;;;;;;;72.32;27.58;;;7.70;99.90;;;;;;5041191;28;20389;-72
2023/11/21 01:41:02;;;;;;;73.47;29.08;;;7.70;99.90;;;;;;5035612;28;20126;-72
2023/11/21 01:43:30;;;;;;;76.28;27.63;;;7.70;99.90;;;;;;5046298;28;20124;-73
2023/11/21 01:45:58;;;;;;;70.15;26.75;;;7.70;99.90;;;;;;5035571;28;20485;-72
2023/11/21 01:48:24;;;;;;;72.43;26.75;;;7.80;99.90;;;;;;5032398;28;20501;-72
2023/11/21 01:50:51;;;;;;;74.28;26.23;;;7.80;99.90;;;;;;5036484;28;20067;-72
2023/11/21 01:53:16;;;;;;;91.95;26.60;;;7.80;99.90;;;;;;5041808;28;20025;-72
2023/11/21 01:55:43;;;;;;;138.40;30.92;;;7.80;99.90;;;;;;5033307;28;21135;-72
2023/11/21 01:58:09;;;;;;;96.45;26.70;;;7.80;99.90;;;;;;5034742;28;20024;-73
2023/11/21 02:00:35;;;;;;;101.05;28.27;;;7.80;99.90;;;;;;5041229;28;20174;-73
2023/11/21 02:03:01;;;;;;;96.68;27.40;;;7.80;99.90;;;;;;5051740;28;20494;-72
2023/11/21 02:05:26;;;;;;;131.63;28.95;;;7.80;99.90;;;;;;5036745;28;20074;-73
2023/11/21 02:07:52;;;;;;;78.38;24.77;;;7.90;99.90;;;;;;5040604;28;20031;-72
2023/11/21 02:10:22;;;;;;;154.05;27.67;;;7.90;99.90;;;;;;5038319;28;20060;-72
2023/11/21 02:12:51;;;;;;;123.22;27.88;;;7.80;99.90;;;;;;5035672;28;20025;-72
2023/11/21 02:15:20;;;;;;;151.40;28.55;;;7.80;99.90;;;;;;5045957;28;20076;-73
2023/11/21 02:17:47;;;;;;;140.88;27.42;;;7.80;99.90;;;;;;5040049;28;20087;-73
2023/11/21 02:20:17;;;;;;;120.70;26.48;;;7.80;99.90;;;;;;5046782;28;20041;-72
2023/11/21 02:22:59;;;;;;;106.47;26.65;;;7.80;99.90;;;;;;5031701;28;20523;-73
2023/11/21 02:25:29;;;;;;;99.97;24.73;;;7.80;99.90;;;;;;5034167;28;20044;-73
2023/11/21 02:28:00;;;;;;;190.38;29.77;;;7.80;99.90;;;;;;5036921;28;20284;-73
2023/11/21 02:30:27;;;;;;;137.43;30.23;;;7.80;99.90;;;;;;5039543;28;20037;-72
2023/11/21 02:32:53;;;;;;;103.55;25.90;;;7.80;99.90;;;;;;5037608;28;20366;-72
2023/11/21 02:35:22;;;;;;;109.20;25.65;;;7.80;99.90;;;;;;5036359;28;20504;-73
2023/11/21 02:37:49;;;;;;;112.40;25.00;;;7.80;99.90;;;;;;5033111;28;20044;-72
2023/11/21 02:40:18;;;;;;;192.63;29.17;;;7.80;99.90;;;;;;5043462;28;20029;-72
2023/11/21 02:42:44;;;;;;;157.63;28.52;;;7.80;99.90;;;;;;5035345;28;20050;-72
2023/11/21 02:45:12;;;;;;;195.52;28.38;;;7.80;99.90;;;;;;5031533;28;20607;-73
2023/11/21 02:47:38;;;;;;;108.20;27.35;;;7.80;99.90;;;;;;5036940;28;20112;-72
2023/11/21 02:50:06;;;;;;;102.70;25.25;;;7.80;99.90;;;;;;5038857;28;20025;-71
2023/11/21 02:52:33;;;;;;;116.65;25.58;;;7.80;99.90;;;;;;5049169;28;20036;-72
2023/11/21 02:54:58;;;;;;;115.15;25.42;;;7.80;99.90;;;;;;5044130;28;20037;-72
2023/11/21 02:57:24;;;;;;;106.75;26.30;;;7.80;99.90;;;;;;5031202;28;20030;-72
2023/11/21 02:59:50;;;;;;;87.43;26.48;;;7.70;99.90;;;;;;5031550;28;20060;-72
2023/11/21 03:02:15;;;;;;;96.80;25.77;;;7.80;99.90;;;;;;5036187;28;20118;-72
2023/11/21 03:04:42;;;;;;;219.77;29.98;;;7.80;99.90;;;;;;5044714;28;20108;-72
2023/11/21 03:07:09;;;;;;;144.73;29.10;;;7.80;99.90;;;;;;5030897;28;20029;-72
2023/11/21 03:09:35;;;;;;;115.22;26.45;;;7.80;99.90;;;;;;5034106;28;20017;-73
2023/11/21 03:12:00;;;;;;;125.85;29.35;;;7.80;99.90;;;;;;5042408;28;20111;-72
2023/11/21 03:14:26;;;;;;;142.40;30.40;;;7.80;99.90;;;;;;5035640;28;20065;-72
2023/11/21 03:16:51;;;;;;;159.52;29.52;;;7.80;99.90;;;;;;5034819;28;20037;-73
2023/11/21 03:19:17;;;;;;;117.57;28.52;;;7.80;99.90;;;;;;5037826;28;20026;-72
2023/11/21 03:21:43;;;;;;;110.03;26.70;;;7.80;99.90;;;;;;5031070;28;20038;-72
2023/11/21 03:24:08;;;;;;;174.95;30.25;;;7.80;99.90;;;;;;5040748;28;20124;-72
2023/11/21 03:26:34;;;;;;;133.43;28.05;;;7.80;99.90;;;;;;5034593;28;20037;-72
2023/11/21 03:28:59;;;;;;;123.43;28.75;;;7.80;99.90;;;;;;5031039;28;20030;-73
2023/11/21 03:31:26;;;;;;;104.70;27.08;;;7.80;99.90;;;;;;5033921;28;20030;-72
2023/11/21 03:33:53;;;;;;;105.53;28.13;;;7.80;99.90;;;;;;5045155;28;20025;-72
2023/11/21 03:36:19;;;;;;;130.95;28.15;;;7.80;99.90;;;;;;5031360;28;20037;-72
2023/11/21 03:38:45;;;;;;;104.47;26.65;;;7.80;99.90;;;;;;5032032;28;20079;-72
2023/11/21 03:41:10;;;;;;;114.90;26.85;;;7.80;99.90;;;;;;5030635;28;20492;-73
2023/11/21 03:43:39;;;;;;;101.30;27.00;;;7.80;99.90;;;;;;5034731;28;20046;-73
2023/11/21 03:46:04;;;;;;;85.13;26.98;;;7.80;99.90;;;;;;5032360;28;20045;-72
2023/11/21 03:48:32;;;;;;;122.28;28.10;;;7.80;99.90;;;;;;5031010;28;20045;-72
2023/11/21 03:50:58;;;;;;;92.95;27.42;;;7.70;99.90;;;;;;5034313;28;20069;-72
2023/11/21 03:53:24;;;;;;;122.82;28.92;;;7.70;99.90;;;;;;5033943;28;20056;-72
2023/11/21 03:55:49;;;;;;;104.70;28.40;;;7.80;99.90;;;;;;5045280;28;20389;-73
2023/11/21 03:58:15;;;;;;;103.55;28.00;;;7.80;99.90;;;;;;5040892;28;20053;-72
2023/11/21 04:00:41;;;;;;;145.52;30.92;;;7.80;99.90;;;;;;5029957;28;20107;-72
2023/11/21 04:03:06;;;;;;;113.93;28.90;;;7.70;99.90;;;;;;5030240;28;20030;-73
2023/11/21 04:05:32;;;;;;;84.28;30.63;;;7.80;99.90;;;;;;5036454;28;20075;-72
2023/11/21 04:07:58;;;;;;;80.30;28.55;;;7.80;99.90;;;;;;5030905;28;20034;-72
2023/11/21 04:10:23;;;;;;;81.90;28.13;;;7.80;99.90;;;;;;5032783;28;20411;-72
2023/11/21 04:12:49;;;;;;;76.88;28.25;;;7.80;99.90;;;;;;5032501;28;20017;-72
2023/11/21 04:15:14;;;;;;;109.50;32.83;;;7.80;99.90;;;;;;5041779;28;20025;-73
2023/11/21 04:17:41;;;;;;;77.85;29.80;;;7.80;99.90;;;;;;5031682;28;20400;-72
2023/11/21 04:20:09;;;;;;;87.45;31.08;;;7.80;99.90;;;;;;5030409;28;20037;-72
2023/11/21 04:22:43;;;;;;;88.40;31.40;;;7.90;99.90;;;;;;5031580;28;20028;-72
2023/11/21 04:25:14;;;;;;;83.95;31.17;;;7.90;99.90;;;;;;5042787;28;20063;-72
2023/11/21 04:27:43;;;;;;;87.82;30.20;;;7.90;99.90;;;;;;5042035;28;20033;-72
2023/11/21 04:30:13;;;;;;;75.15;30.20;;;7.90;99.90;;;;;;5041682;28;20424;-72
2023/11/21 04:32:41;;;;;;;80.43;30.13;;;7.90;99.90;;;;;;5039619;28;20090;-72
2023/11/21 04:35:08;;;;;;;72.60;28.80;;;7.90;99.90;;;;;;5039617;28;20024;-72
2023/11/21 04:37:34;;;;;;;80.97;30.30;;;7.90;99.90;;;;;;5034723;28;20013;-73
2023/11/21 04:39:59;;;;;;;61.83;27.67;;;8.00;99.90;;;;;;5032748;28;20040;-72
2023/11/21 04:42:25;;;;;;;74.13;30.20;;;7.90;99.90;;;;;;5041507;28;20044;-72
2023/11/21 04:44:52;;;;;;;82.22;30.48;;;7.90;99.90;;;;;;5043630;28;20037;-72
2023/11/21 04:47:19;;;;;;;70.50;29.38;;;8.00;99.90;;;;;;5035181;28;20048;-72
2023/11/21 04:49:47;;;;;;;72.97;28.90;;;7.90;99.90;;;;;;5040670;28;20025;-72
2023/11/21 04:52:12;;;;;;;68.00;29.65;;;8.00;99.90;;;;;;5041349;28;20040;-72
2023/11/21 04:54:39;;;;;;;66.07;29.33;;;8.00;99.90;;;;;;5037840;28;20033;-72
2023/11/21 04:57:07;;;;;;;63.78;28.27;;;8.00;99.90;;;;;;5038655;28;20044;-72
2023/11/21 04:59:33;;;;;;;63.15;28.38;;;8.00;99.90;;;;;;5046609;28;20026;-72
2023/11/21 05:02:00;;;;;;;57.55;27.73;;;8.00;99.90;;;;;;5042159;28;20400;-72
2023/11/21 05:04:25;;;;;;;60.22;28.05;;;8.00;99.90;;;;;;5034577;28;20112;-72
2023/11/21 05:06:51;;;;;;;54.40;26.60;;;8.00;99.90;;;;;;5036152;28;20121;-72
2023/11/21 05:09:17;;;;;;;58.30;27.65;;;8.10;99.90;;;;;;5046378;28;20025;-73
2023/11/21 05:11:43;;;;;;;61.10;26.45;;;8.10;99.90;;;;;;5033803;28;20037;-73
2023/11/21 05:14:08;;;;;;;57.65;26.00;;;8.10;99.90;;;;;;5043364;28;20031;-72
2023/11/21 05:16:35;;;;;;;56.55;26.35;;;8.10;99.90;;;;;;5041018;28;20440;-72
2023/11/21 05:19:01;;;;;;;60.15;26.38;;;8.10;99.90;;;;;;5037051;28;20033;-72
2023/11/21 05:21:33;;;;;;;61.03;26.73;;;8.10;99.90;;;;;;5036871;28;20050;-72
2023/11/21 05:23:58;;;;;;;52.88;27.20;;;8.10;99.90;;;;;;5042754;28;20064;-72
2023/11/21 05:26:24;;;;;;;59.17;27.10;;;8.10;99.90;;;;;;5033380;28;20065;-72
2023/11/21 05:28:50;;;;;;;54.08;25.27;;;8.10;99.90;;;;;;5042428;28;20032;-72
2023/11/21 05:31:15;;;;;;;53.10;25.85;;;8.10;99.90;;;;;;5045133;28;20504;-72
2023/11/21 05:33:41;;;;;;;55.72;25.65;;;8.10;99.90;;;;;;5035956;28;20111;-73
2023/11/21 05:36:07;;;;;;;55.67;26.45;;;8.20;99.90;;;;;;5049310;28;20488;-72
2023/11/21 05:38:35;;;;;;;51.75;25.27;;;8.20;99.90;;;;;;5042033;28;20060;-72
2023/11/21 05:41:00;;;;;;;52.17;24.77;;;8.20;99.90;;;;;;5036806;28;20519;-72
2023/11/21 05:43:27;;;;;;;51.28;25.58;;;8.20;99.90;;;;;;5035805;28;20053;-73
2023/11/21 05:45:52;;;;;;;48.33;24.02;;;8.20;99.90;;;;;;5035907;28;20144;-72
2023/11/21 05:48:18;;;;;;;49.67;25.33;;;8.20;99.90;;;;;;5038474;28;20067;-72
2023/11/21 05:50:44;;;;;;;54.05;26.50;;;8.20;99.90;;;;;;5050331;28;20060;-72
2023/11/21 05:53:11;;;;;;;56.15;25.75;;;8.10;99.90;;;;;;5040611;28;20061;-73
2023/11/21 05:55:36;;;;;;;50.25;24.77;;;8.10;99.90;;;;;;5041248;28;20048;-73
2023/11/21 05:58:02;;;;;;;53.40;25.45;;;8.10;99.90;;;;;;5040526;28;20388;-72
2023/11/21 06:00:28;;;;;;;56.70;25.80;;;8.10;99.90;;;;;;5037103;28;20639;-73
2023/11/21 06:02:54;;;;;;;48.55;24.58;;;8.10;99.90;;;;;;5043600;28;20029;-73
2023/11/21 06:05:23;;;;;;;56.63;26.83;;;8.20;99.90;;;;;;5039659;28;20088;-72
2023/11/21 06:07:49;;;;;;;46.30;24.92;;;8.10;99.90;;;;;;5040900;28;20107;-72
2023/11/21 06:10:15;;;;;;;49.47;27.30;;;8.10;99.90;;;;;;5038246;28;20083;-72
2023/11/21 06:12:43;;;;;;;50.08;23.35;;;8.10;99.90;;;;;;5037176;28;20024;-72
2023/11/21 06:15:12;;;;;;;49.20;25.25;;;8.10;99.90;;;;;;5039199;28;20063;-72
2023/11/21 06:17:37;;;;;;;49.85;25.35;;;8.20;99.90;;;;;;5042449;28;20437;-73
2023/11/21 06:20:08;;;;;;;48.40;25.25;;;8.20;99.90;;;;;;5033804;28;20056;-72
2023/11/21 06:22:38;;;;;;;43.90;24.90;;;8.30;99.90;;;;;;5038774;28;20120;-73
2023/11/21 06:25:05;;;;;;;47.33;23.60;;;8.30;99.90;;;;;;5051505;28;20037;-73
2023/11/21 06:27:32;;;;;;;51.70;24.42;;;8.40;99.90;;;;;;5036201;28;20048;-73
2023/11/21 06:29:58;;;;;;;42.05;23.38;;;8.40;99.90;;;;;;5043411;28;20497;-73
2023/11/21 06:32:23;;;;;;;43.08;22.17;;;8.40;99.90;;;;;;5032783;28;20032;-72
2023/11/21 06:34:49;;;;;;;43.45;23.77;;;8.40;99.90;;;;;;5050450;28;20032;-72
2023/11/21 06:37:16;;;;;;;41.97;22.98;;;8.40;99.90;;;;;;5048433;28;20082;-73
2023/11/21 06:39:42;;;;;;;43.88;24.30;;;8.40;99.90;;;;;;5034171;28;20028;-73
2023/11/21 06:42:07;;;;;;;44.45;22.88;;;8.40;99.90;;;;;;5036933;28;20033;-73
2023/11/21 06:44:33;;;;;;;44.75;23.45;;;8.40;99.90;;;;;;5052193;28;20412;-72
2023/11/21 06:46:59;;;;;;;41.78;22.27;;;8.40;99.90;;;;;;5044063;28;20400;-72
2023/11/21 06:49:25;;;;;;;42.30;23.13;;;8.40;99.90;;;;;;5041330;28;20118;-72
2023/11/21 06:51:51;;;;;;;40.92;21.77;;;8.50;99.90;;;;;;5047602;28;20037;-72
2023/11/21 06:54:18;;;;;;;38.28;22.30;;;8.50;99.90;;;;;;5034562;28;20040;-73
2023/11/21 06:56:43;;;;;;;40.97;21.05;;;8.50;99.90;;;;;;5037134;28;20030;-72
2023/11/21 06:59:10;;;;;;;41.95;22.10;;;8.50;99.90;;;;;;5039567;28;20036;-72
2023/11/21 07:01:38;;;;;;;35.78;21.58;;;8.50;99.90;;;;;;5040522;28;20048;-73
2023/11/21 07:04:06;;;;;;;42.72;21.65;;;8.60;99.90;;;;;;5032641;28;20037;-73
2023/11/21 07:06:31;;;;;;;40.70;22.23;;;8.50;99.90;;;;;;5038778;28;20131;-72
2023/11/21 07:08:57;;;;;;;39.97;21.77;;;8.50;99.90;;;;;;5029725;28;20072;-72
2023/11/21 07:11:22;;;;;;;41.35;21.98;;;8.50;99.90;;;;;;5030055;28;20044;-71
2023/11/21 07:13:48;;;;;;;45.42;23.40;;;8.50;99.90;;;;;;5033606;28;20484;-71
2023/11/21 07:16:15;;;;;;;39.17;21.40;;;8.50;99.90;;;;;;5033831;28;20489;-71
2023/11/21 07:18:41;;;;;;;41.85;22.20;;;8.40;99.90;;;;;;5036965;28;20106;-71
2023/11/21 07:21:08;;;;;;;40.15;22.38;;;8.40;99.90;;;;;;5036936;28;20509;-71
2023/11/21 07:23:33;;;;;;;47.15;21.95;;;8.40;99.90;;;;;;5034966;28;20059;-71
2023/11/21 07:25:59;;;;;;;38.33;21.10;;;8.40;99.90;;;;;;5041309;28;20045;-71
2023/11/21 07:28:25;;;;;;;48.70;23.58;;;8.40;99.90;;;;;;5031185;28;20496;-71
2023/11/21 07:30:52;;;;;;;39.75;21.85;;;8.40;99.90;;;;;;5038279;28;20036;-71
2023/11/21 07:33:18;;;;;;;44.88;22.42;;;8.40;99.90;;;;;;5038395;28;20024;-71
2023/11/21 07:35:43;;;;;;;41.50;22.20;;;8.40;99.90;;;;;;5031609;28;20497;-71
2023/11/21 07:38:09;;;;;;;46.83;22.95;;;8.40;99.90;;;;;;5038639;28;20025;-71
2023/11/21 07:40:34;;;;;;;43.75;22.90;;;8.40;99.90;;;;;;5032727;28;20037;-72
2023/11/21 07:43:00;;;;;;;41.00;22.17;;;8.40;99.90;;;;;;5044872;28;20064;-72
2023/11/21 07:45:28;;;;;;;40.58;22.17;;;8.40;99.90;;;;;;5034099;28;20424;-73
2023/11/21 07:47:55;;;;;;;43.35;22.77;;;8.40;99.90;;;;;;5031067;28;20053;-72
2023/11/21 07:50:22;;;;;;;41.20;22.30;;;8.50;99.90;;;;;;5031801;28;20108;-72
2023/11/21 07:52:49;;;;;;;45.67;23.85;;;8.50;99.90;;;;;;5032163;28;20029;-72
2023/11/21 07:55:15;;;;;;;50.70;23.95;;;8.50;99.90;;;;;;5040259;28;20032;-72
2023/11/21 07:57:41;;;;;;;53.47;24.67;;;8.60;99.90;;;;;;5037166;28;20029;-72
2023/11/21 08:00:09;;;;;;;52.40;25.67;;;8.60;99.90;;;;;;5031948;28;20026;-72
2023/11/21 08:02:34;;;;;;;46.33;24.05;;;8.60;99.90;;;;;;5031451;28;20108;-72
2023/11/21 08:05:00;;;;;;;48.65;23.15;;;8.60;99.90;;;;;;5039792;28;20119;-72
2023/11/21 08:07:26;;;;;;;44.10;22.50;;;8.60;99.90;;;;;;5041965;28;20024;-72
2023/11/21 08:09:52;;;;;;;43.10;23.20;;;8.60;99.90;;;;;;5038349;28;20025;-72
2023/11/21 08:12:18;;;;;;;48.05;24.80;;;8.60;99.90;;;;;;5033033;28;20029;-72
2023/11/21 08:14:44;;;;;;;48.78;24.23;;;8.70;99.90;;;;;;5037702;28;20074;-72
2023/11/21 08:17:10;;;;;;;49.15;23.50;;;8.70;99.90;;;;;;5035414;28;20132;-72
2023/11/21 08:19:36;;;;;;;49.20;24.63;;;8.70;99.90;;;;;;5036929;28;20029;-72
2023/11/21 08:22:03;;;;;;;52.05;23.88;;;8.70;99.90;;;;;;5040150;28;20064;-72
2023/11/21 08:24:28;;;;;;;48.40;24.27;;;8.80;99.90;;;;;;5036595;28;20112;-72
2023/11/21 08:26:54;;;;;;;50.47;24.77;;;8.80;99.90;;;;;;5030556;28;20426;-72
2023/11/21 08:29:20;;;;;;;57.97;26.25;;;8.90;99.90;;;;;;5030318;28;20029;-73
2023/11/21 08:31:46;;;;;;;49.22;25.88;;;8.90;99.90;;;;;;5029197;28;20183;-73
2023/11/21 08:34:14;;;;;;;53.22;25.42;;;8.90;99.90;;;;;;5037580;28;20029;-73
2023/11/21 08:36:43;;;;;;;49.90;23.65;;;9.00;99.90;;;;;;5048777;28;20103;-71
2023/11/21 08:39:09;;;;;;;62.03;25.58;;;9.00;99.90;;;;;;5038974;28;20025;-72
2023/11/21 08:41:36;;;;;;;51.15;24.33;;;9.00;99.90;;;;;;5031488;28;20049;-72
2023/11/21 08:44:05;;;;;;;60.85;25.27;;;9.00;99.90;;;;;;5037940;28;20045;-72
2023/11/21 08:46:31;;;;;;;54.45;24.45;;;9.10;99.90;;;;;;5042689;28;20505;-72
2023/11/21 08:48:56;;;;;;;61.10;26.20;;;9.10;99.90;;;;;;5042613;28;20076;-72
2023/11/21 08:51:22;;;;;;;70.38;27.52;;;9.10;99.90;;;;;;5038018;28;20033;-72
2023/11/21 08:53:47;;;;;;;51.85;26.52;;;9.10;99.90;;;;;;5038579;28;20055;-72
2023/11/21 08:56:14;;;;;;;69.68;27.33;;;9.20;99.90;;;;;;5039045;28;20033;-72
2023/11/21 08:58:39;;;;;;;64.70;28.63;;;9.20;99.90;;;;;;5043244;28;20087;-72
2023/11/21 09:01:07;;;;;;;62.97;29.20;;;9.30;99.90;;;;;;5043435;28;20500;-72
2023/11/21 09:03:34;;;;;;;65.68;28.80;;;9.30;99.90;;;;;;5030819;28;20397;-73
2023/11/21 09:06:00;;;;;;;56.05;26.20;;;9.40;99.90;;;;;;5034295;28;20484;-72
2023/11/21 09:08:25;;;;;;;61.28;27.38;;;9.40;99.90;;;;;;5040872;28;20043;-73
2023/11/21 09:10:51;;;;;;;63.22;27.77;;;9.40;99.90;;;;;;5038988;28;20032;-72
2023/11/21 09:13:17;;;;;;;66.43;28.98;;;9.50;99.90;;;;;;5045803;28;20112;-72
2023/11/21 09:15:46;;;;;;;62.45;26.98;;;9.50;99.90;;;;;;5043217;28;20037;-72
2023/11/21 09:18:15;;;;;;;69.95;29.02;;;9.50;99.90;;;;;;5042763;28;20059;-72
2023/11/21 09:20:42;;;;;;;58.38;28.45;;;9.60;99.90;;;;;;5033797;28;20033;-72
2023/11/21 09:23:08;;;;;;;67.07;27.98;;;9.60;99.90;;;;;;5039906;28;20033;-72
2023/11/21 09:25:34;;;;;;;60.80;27.30;;;9.60;99.90;;;;;;5038034;28;20386;-72
2023/11/21 09:27:59;;;;;;;65.38;28.90;;;9.60;99.90;;;;;;5040535;28;20105;-72
2023/11/21 09:30:25;;;;;;;66.82;27.80;;;9.60;99.90;;;;;;5034876;28;20025;-73
2023/11/21 09:32:51;;;;;;;61.00;28.08;;;9.60;99.90;;;;;;5038148;28;20032;-71
2023/11/21 09:35:18;;;;;;;65.75;28.40;;;9.60;99.90;;;;;;5040444;28;20029;-72
2023/11/21 09:37:46;;;;;;;62.65;27.00;;;9.60;99.90;;;;;;5036864;28;20462;-72
2023/11/21 09:40:13;;;;;;;67.07;28.90;;;9.70;99.90;;;;;;5033753;28;20033;-72
2023/11/21 09:42:43;;;;;;;62.10;27.77;;;9.70;99.90;;;;;;5043832;28;20505;-72
2023/11/21 09:45:29;;;;;;;71.40;30.23;;;9.70;99.90;;;;;;5045084;28;20472;-72
2023/11/21 09:47:55;;;;;;;81.95;29.60;;;9.80;99.90;;;;;;5046107;28;20033;-72
2023/11/21 09:50:22;;;;;;;84.95;30.80;;;9.80;99.90;;;;;;5046818;28;20024;-72
2023/11/21 09:53:13;;;;;;;70.07;30.65;;;9.90;99.90;;;;;;5035119;28;20055;-73
2023/11/21 09:55:41;;;;;;;75.32;29.13;;;9.90;99.90;;;;;;5045359;28;20033;-72
2023/11/21 09:58:07;;;;;;;72.60;28.85;;;10.00;99.90;;;;;;5042465;28;20033;-72
2023/11/21 10:00:34;;;;;;;75.88;30.40;;;10.00;99.90;;;;;;5048717;28;20447;-72
2023/11/21 10:03:02;;;;;;;91.00;33.08;;;10.00;99.90;;;;;;5031968;28;20404;-72
2023/11/21 10:05:28;;;;;;;91.28;32.60;;;10.10;99.90;;;;;;5031537;28;20468;-73
2023/11/21 10:07:57;;;;;;;106.25;32.95;;;10.10;99.90;;;;;;5041279;28;20060;-72
2023/11/21 10:10:24;;;;;;;76.30;30.13;;;10.10;99.90;;;;;;5042993;28;20056;-72
2023/11/21 10:12:55;;;;;;;107.70;29.90;;;10.00;99.90;;;;;;5036363;28;20022;-72
2023/11/21 10:15:27;;;;;;;69.78;29.48;;;10.00;99.90;;;;;;5032780;28;20128;-72
2023/11/21 10:17:54;;;;;;;97.47;29.63;;;10.00;99.90;;;;;;5042129;28;20495;-72
2023/11/21 10:20:20;;;;;;;77.93;30.75;;;10.10;99.90;;;;;;5039131;28;20041;-72
2023/11/21 10:22:46;;;;;;;125.05;32.50;;;10.10;99.90;;;;;;5033586;28;20026;-72
2023/11/21 10:25:16;;;;;;;175.43;36.53;;;10.20;99.90;;;;;;5043630;28;20029;-72
2023/11/21 10:27:43;;;;;;;160.65;33.60;;;10.20;99.90;;;;;;5037955;28;20040;-72
2023/11/21 10:30:11;;;;;;;80.22;32.17;;;10.30;99.90;;;;;;5037054;28;20036;-72
2023/11/21 10:32:40;;;;;;;99.10;34.13;;;10.50;99.90;;;;;;5035117;28;20030;-72
2023/11/21 10:35:09;;;;;;;75.72;32.22;;;10.70;99.90;;;;;;5044136;28;20032;-71
2023/11/21 10:37:43;;;;;;;72.93;31.23;;;10.90;99.90;;;;;;5035403;28;20105;-71
2023/11/21 10:40:12;;;;;;;80.60;30.40;;;11.00;99.90;;;;;;5042152;28;20088;-72
2023/11/21 10:42:41;;;;;;;62.30;27.25;;;11.10;99.90;;;;;;5033960;28;20443;-72
2023/11/21 10:45:14;;;;;;;66.30;26.52;;;11.10;99.90;;;;;;5032537;28;20115;-72
2023/11/21 10:47:41;;;;;;;63.72;26.67;;;11.10;99.90;;;;;;5031702;28;20116;-71
2023/11/21 10:50:11;;;;;;;57.45;25.20;;;11.00;99.90;;;;;;5031765;28;20029;-71
2023/11/21 10:52:39;;;;;;;62.92;25.23;;;11.00;99.90;;;;;;5031949;28;20024;-72
2023/11/21 10:55:26;;;;;;;55.08;23.58;;;11.00;99.90;;;;;;5032178;28;20026;-72
2023/11/21 10:57:54;;;;;;;58.60;25.30;;;11.00;99.90;;;;;;5036281;28;20021;-71
2023/11/21 11:00:20;;;;;;;57.72;25.55;;;10.90;99.90;;;;;;5044604;28;20032;-72
2023/11/21 11:02:49;;;;;;;60.40;25.02;;;10.80;99.90;;;;;;5042975;28;20083;-72
2023/11/21 11:05:18;;;;;;;67.00;28.80;;;10.90;99.90;;;;;;5037884;28;20489;-72
2023/11/21 11:07:44;;;;;;;66.78;25.77;;;10.90;99.90;;;;;;5031485;28;20489;-72
2023/11/21 11:10:14;;;;;;;53.42;24.33;;;10.90;99.90;;;;;;5031951;28;20021;-72
2023/11/21 11:12:41;;;;;;;54.38;23.50;;;10.90;99.90;;;;;;5040348;28;20107;-72
2023/11/21 11:15:09;;;;;;;60.42;25.48;;;11.00;99.90;;;;;;5036559;28;20029;-71
2023/11/21 11:17:38;;;;;;;54.65;23.40;;;11.10;99.90;;;;;;5037738;28;20061;-72
2023/11/21 11:20:10;;;;;;;49.47;22.45;;;11.10;99.90;;;;;;5032021;28;20059;-72
2023/11/21 11:23:08;;;;;;;50.72;21.63;;;11.10;99.90;;;;;;5032526;28;20045;-72
2023/11/21 11:26:06;;;;;;;40.78;18.90;;;11.00;99.90;;;;;;5029611;28;20524;-72
2023/11/21 11:28:51;;;;;;;38.08;18.25;;;10.80;99.90;;;;;;5026979;28;20167;-72
2023/11/21 11:31:50;;;;;;;45.17;18.17;;;10.70;99.90;;;;;;5031155;28;20029;-71
2023/11/21 11:34:29;;;;;;;40.65;17.80;;;10.70;99.90;;;;;;5031122;28;20057;-72
2023/11/21 11:37:02;;;;;;;45.88;18.75;;;10.60;99.90;;;;;;5031888;28;20022;-71
2023/11/21 11:39:34;;;;;;;45.05;18.67;;;10.70;99.90;;;;;;5031410;28;20120;-73
2023/11/21 11:42:04;;;;;;;64.75;20.35;;;10.60;99.90;;;;;;5049108;28;20058;-72
2023/11/21 11:44:46;;;;;;;43.65;20.52;;;10.60;99.90;;;;;;5046636;28;20049;-72
2023/11/21 11:47:37;;;;;;;42.63;19.75;;;10.60;99.90;;;;;;5046126;28;20132;-71
2023/11/21 11:50:16;;;;;;;43.35;19.33;;;10.60;99.90;;;;;;5046089;28;20036;-72
2023/11/21 11:52:52;;;;;;;46.60;19.73;;;10.60;99.90;;;;;;5047210;28;20503;-72
2023/11/21 11:55:21;;;;;;;45.67;19.55;;;10.50;99.90;;;;;;5038208;28;20032;-72
2023/11/21 11:57:51;;;;;;;46.67;21.38;;;10.50;99.90;;;;;;5031212;28;20033;-71
2023/11/21 12:00:19;;;;;;;44.28;20.98;;;10.60;99.90;;;;;;5038980;28;20029;-72
2023/11/21 12:02:49;;;;;;;45.67;21.73;;;10.60;99.90;;;;;;5037994;28;20091;-72
2023/11/21 12:05:18;;;;;;;49.45;20.50;;;10.60;99.90;;;;;;5030780;28;20397;-72
2023/11/21 12:07:52;;;;;;;37.70;18.98;;;10.60;99.90;;;;;;5038144;28;20021;-72
2023/11/21 12:10:20;;;;;;;44.35;20.85;;;10.60;99.90;;;;;;5047125;28;20033;-72
2023/11/21 12:12:48;;;;;;;43.95;20.70;;;10.70;99.90;;;;;;5030014;28;20033;-72
2023/11/21 12:15:13;;;;;;;36.88;18.02;;;10.70;99.90;;;;;;5036432;28;20057;-72
2023/11/21 12:17:41;;;;;;;36.70;18.08;;;10.70;99.90;;;;;;5030681;28;20098;-72
2023/11/21 12:20:14;;;;;;;36.58;17.40;;;10.70;99.90;;;;;;5030755;28;20120;-72
2023/11/21 12:22:42;;;;;;;30.45;16.60;;;10.80;99.90;;;;;;5030871;28;20362;-72
2023/11/21 12:25:08;;;;;;;35.65;16.60;;;10.70;99.90;;;;;;5040340;28;20124;-72
2023/11/21 12:27:35;;;;;;;32.33;15.63;;;10.70;99.90;;;;;;5032114;28;20156;-72
2023/11/21 12:30:00;;;;;;;34.47;14.52;;;10.70;99.90;;;;;;5033608;28;20030;-72
2023/11/21 12:32:26;;;;;;;32.60;14.63;;;10.70;99.90;;;;;;5038256;28;20044;-72
2023/11/21 12:34:52;;;;;;;31.50;14.52;;;10.70;99.90;;;;;;5046064;28;20013;-72